Time;durP1;ratioP1;P1;durP2;ratioP2;P2;SDS_P1;SDS_P2;PMS_P1;PMS_P2;Temp;Humidity;BMP_temperature;BMP_pressure;BME280_temperature;BME280_humidity;BME280_pressure;Samples;Min_cycle;Max_cycle;Signal;HPM_P1;HPM_P2
2021/06/21 00:00:27;;;;;;;11.00;6.75;;;21.10;99.90;;;22.34;74.84;99554.22;6241901;23;20005;-85
2021/06/21 00:02:58;;;;;;;9.55;7.75;;;21.00;99.90;;;22.10;77.19;99560.84;6240829;22;20015;-88
2021/06/21 00:05:24;;;;;;;9.18;7.68;;;20.70;99.90;;;21.89;78.64;99557.53;6215534;23;20438;-88
2021/06/21 00:07:50;;;;;;;14.45;9.43;;;20.50;99.90;;;21.68;80.85;99543.25;6215510;23;20012;-87
2021/06/21 00:10:18;;;;;;;12.32;8.50;;;20.20;99.90;;;21.55;83.35;99543.28;6237441;23;20028;-89
2021/06/21 00:12:47;;;;;;;11.80;8.85;;;20.10;99.90;;;21.35;84.69;99537.13;6223151;23;20019;-89
2021/06/21 00:15:21;;;;;;;10.35;7.65;;;19.90;99.90;;;21.18;86.08;99530.00;6222950;23;20032;-87
2021/06/21 00:17:49;;;;;;;14.77;9.25;;;19.70;99.90;;;21.10;87.58;99537.94;6221153;23;20005;-89
2021/06/21 00:20:19;;;;;;;11.82;8.27;;;19.70;99.90;;;20.99;88.66;99523.28;6196064;23;20434;-88
2021/06/21 00:22:45;;;;;;;13.73;10.13;;;19.50;99.90;;;20.95;90.78;99526.25;6224594;23;20341;-88
2021/06/21 00:25:14;;;;;;;15.75;10.73;;;19.50;99.90;;;20.89;92.01;99516.72;6196867;23;20009;-91
2021/06/21 00:27:41;;;;;;;13.43;10.35;;;19.40;99.90;;;20.85;92.51;99520.91;6218808;23;20439;-88
2021/06/21 00:30:14;;;;;;;11.23;9.18;;;19.30;99.90;;;20.80;92.79;99521.50;6193831;23;20028;-88
2021/06/21 00:32:44;;;;;;;10.13;7.53;;;19.30;99.90;;;20.75;92.70;99517.16;6192741;23;20005;-87
2021/06/21 00:35:13;;;;;;;12.55;9.27;;;19.30;99.90;;;20.74;93.11;99514.81;6196343;23;20071;-91
2021/06/21 00:37:39;;;;;;;14.48;10.10;;;19.20;99.90;;;20.73;93.88;99511.16;6222769;23;20430;-90
2021/06/21 00:40:10;;;;;;;13.02;10.60;;;19.20;99.90;;;20.72;94.40;99517.28;6194192;23;20019;-89
2021/06/21 00:42:40;;;;;;;12.32;10.20;;;19.20;99.90;;;20.72;94.89;99514.44;6192685;23;20030;-89
2021/06/21 00:45:08;;;;;;;17.05;11.80;;;19.20;99.90;;;20.71;94.95;99521.38;6217049;23;20066;-89
2021/06/21 00:47:33;;;;;;;13.73;10.85;;;19.20;99.90;;;20.69;95.21;99521.03;6193049;23;20484;-89
2021/06/21 00:49:59;;;;;;;12.23;10.00;;;19.10;99.90;;;20.69;95.64;99512.50;6192706;23;20040;-88
2021/06/21 00:52:25;;;;;;;13.75;10.73;;;19.20;99.90;;;20.72;96.38;99526.59;6193586;23;20015;-89
2021/06/21 00:55:00;;;;;;;13.25;11.40;;;19.20;99.90;;;20.71;96.15;99519.31;6193600;23;20047;-91
2021/06/21 00:57:33;;;;;;;14.73;12.43;;;19.20;99.90;;;20.68;97.08;99516.63;6193185;23;20387;-86
2021/06/21 01:00:09;;;;;;;13.00;11.45;;;19.10;99.90;;;20.67;97.03;99521.50;6218934;23;20009;-89
2021/06/21 01:02:36;;;;;;;15.07;13.48;;;19.20;99.90;;;20.63;97.33;99522.84;6196509;23;20011;-88
2021/06/21 01:05:15;;;;;;;13.60;11.65;;;19.10;99.90;;;20.61;97.30;99514.81;6198960;23;20016;-88
2021/06/21 01:07:42;;;;;;;14.60;10.98;;;19.10;99.90;;;20.62;97.55;99515.56;6204593;23;20394;-90
2021/06/21 01:10:12;;;;;;;17.08;11.90;;;19.00;99.90;;;20.62;97.67;99513.53;6211852;23;20012;-86
2021/06/21 01:25:30;;;;;;;13.60;11.35;;;19.10;99.90;;;20.57;99.87;99482.13;6219910;23;20040;-89
2021/06/21 01:28:56;;;;;;;18.50;15.67;;;19.00;99.90;;;20.56;100.00;99469.97;6197865;23;20021;-89
2021/06/21 01:31:37;;;;;;;16.70;13.38;;;19.00;99.90;;;20.56;99.65;99464.28;6218412;23;20338;-89
2021/06/21 01:34:04;;;;;;;14.75;12.05;;;19.00;99.90;;;20.52;99.92;99460.00;6218410;23;20009;-89
2021/06/21 01:36:31;;;;;;;18.90;15.32;;;19.00;99.90;;;20.54;100.00;99454.66;6192779;23;20092;-88
2021/06/21 01:39:01;;;;;;;15.23;13.45;;;19.00;99.90;;;20.49;100.00;99442.63;6217579;23;20012;-89
2021/06/21 01:41:39;;;;;;;17.17;14.07;;;19.00;99.90;;;20.51;100.00;99442.19;6219709;23;20009;-92
2021/06/21 01:44:07;;;;;;;18.48;13.38;;;19.00;99.90;;;20.52;100.00;99438.88;6193241;23;20013;-88
2021/06/21 01:47:00;;;;;;;17.67;14.32;;;18.90;99.90;;;20.45;100.00;99427.00;6219633;23;20399;-87
2021/06/21 01:49:39;;;;;;;17.08;14.60;;;19.00;99.90;;;20.44;100.00;99417.69;6192462;23;20047;-91
2021/06/21 05:41:38;;;;;;;9.30;6.85;;;19.70;99.90;;;21.44;96.09;99367.56;6180824;23;20021;-91
2021/06/21 05:44:05;;;;;;;12.05;6.50;;;19.80;99.90;;;21.41;94.20;99351.47;6187194;23;20021;-91
2021/06/21 05:46:31;;;;;;;9.10;6.05;;;19.90;99.90;;;21.50;94.65;99365.72;6190915;23;20013;-89
2021/06/21 05:48:57;;;;;;;12.15;6.50;;;19.90;99.90;;;21.59;94.62;99358.50;6191275;23;20423;-91
2021/06/21 05:51:23;;;;;;;9.82;5.60;;;20.00;99.90;;;21.73;94.81;99353.09;6192430;23;20065;-89
2021/06/21 05:53:49;;;;;;;10.50;5.30;;;20.10;99.90;;;21.84;93.64;99352.63;6168536;23;20137;-89
2021/06/21 05:56:15;;;;;;;10.60;5.75;;;20.20;99.90;;;22.03;92.99;99366.50;6192987;23;20016;-90
2021/06/21 05:58:41;;;;;;;9.95;5.70;;;20.20;99.90;;;22.08;92.74;99359.44;6189125;23;20012;-90
2021/06/21 06:01:07;;;;;;;11.50;5.65;;;20.40;99.90;;;22.08;92.67;99356.59;6188465;23;20044;-88
2021/06/21 06:03:33;;;;;;;8.20;5.30;;;20.40;99.90;;;22.02;91.90;99361.31;6166632;23;20466;-89
2021/06/21 06:06:01;;;;;;;8.38;4.93;;;20.40;99.90;;;22.00;91.61;99358.13;6190057;23;20005;-89
2021/06/21 06:08:27;;;;;;;11.00;5.13;;;20.40;99.90;;;22.10;91.40;99367.47;6163289;23;20013;-91
2021/06/21 06:10:53;;;;;;;11.23;4.20;;;20.40;99.90;;;22.09;90.51;99361.00;6188766;23;20039;-88
2021/06/21 06:13:20;;;;;;;11.45;4.72;;;20.50;99.90;;;22.15;89.92;99359.16;6189343;23;20005;-88
2021/06/21 06:15:45;;;;;;;11.48;4.80;;;20.50;99.90;;;22.17;89.85;99362.31;6188065;23;20308;-88
2021/06/21 06:18:11;;;;;;;8.25;4.10;;;20.50;99.90;;;22.24;89.00;99362.03;6163617;23;20089;-88
2021/06/21 06:20:37;;;;;;;12.27;3.75;;;20.60;99.90;;;22.18;88.68;99366.75;6189264;23;20016;-90
2021/06/21 06:23:05;;;;;;;9.30;3.63;;;20.60;99.90;;;22.16;88.02;99366.41;6188330;23;20008;-91
2021/06/21 06:25:37;;;;;;;9.43;3.08;;;20.60;99.90;;;21.97;86.13;99364.75;6187910;23;20439;-89
2021/06/21 06:28:05;;;;;;;10.27;2.90;;;20.50;99.90;;;22.09;85.75;99363.84;6190046;23;20005;-91
2021/06/21 06:30:32;;;;;;;11.30;2.88;;;20.50;99.90;;;22.41;85.94;99363.34;6187757;23;20013;-90
2021/06/21 06:32:58;;;;;;;8.73;2.70;;;20.70;99.90;;;22.55;85.00;99367.66;6187786;23;20017;-89
2021/06/21 06:35:24;;;;;;;10.40;2.38;;;20.80;99.90;;;22.89;84.64;99373.09;6188815;23;20005;-92
2021/06/21 06:37:50;;;;;;;10.25;2.65;;;21.10;99.90;;;23.03;82.89;99377.41;6189898;23;20288;-90
2021/06/21 06:40:18;;;;;;;14.45;3.08;;;21.20;99.90;;;23.00;81.70;99384.03;6163026;23;20011;-91
2021/06/21 06:42:46;;;;;;;8.57;2.67;;;21.20;99.90;;;22.95;81.37;99388.31;6169318;23;20013;-91
2021/06/21 06:45:14;;;;;;;7.95;2.10;;;21.20;99.90;;;22.96;82.69;99384.19;6130966;23;20017;-91
2021/06/21 06:47:39;;;;;;;13.00;2.83;;;21.20;99.90;;;22.89;81.94;99395.13;6132344;23;20020;-91
2021/06/21 06:50:08;;;;;;;10.63;2.60;;;21.20;99.90;;;22.84;81.87;99392.88;6131464;23;20009;-88
2021/06/21 06:52:35;;;;;;;7.82;2.53;;;21.20;99.90;;;22.88;83.02;99394.31;6131910;23;20064;-91
2021/06/21 06:57:48;;;;;;;8.02;2.63;;;21.40;99.90;;;23.40;79.79;99396.13;6158570;23;20364;-90
2021/06/21 07:00:15;;;;;;;12.45;2.53;;;21.70;99.90;;;23.41;77.98;99396.88;6156049;23;20013;-91
2021/06/21 07:02:46;;;;;;;13.35;2.55;;;21.80;99.90;;;23.38;78.49;99398.63;6131893;23;20017;-89
2021/06/21 07:05:13;;;;;;;8.68;2.70;;;21.90;99.90;;;23.55;77.62;99393.41;6132041;23;20020;-89
2021/06/21 07:07:39;;;;;;;9.93;2.45;;;21.90;99.90;;;23.45;77.11;99406.06;6131841;23;20037;-89
2021/06/21 07:10:07;;;;;;;8.60;2.65;;;21.90;99.90;;;23.24;77.58;99396.41;6132733;23;20005;-91
2021/06/21 07:12:33;;;;;;;9.35;2.22;;;21.90;99.90;;;23.38;78.44;99392.91;6132690;23;20013;-91
2021/06/21 07:14:59;;;;;;;8.32;2.53;;;21.90;99.90;;;23.45;77.53;99394.69;6158290;23;20033;-91
2021/06/21 07:17:25;;;;;;;11.80;2.70;;;21.90;99.90;;;23.49;76.68;99398.16;6135106;23;20006;-89
2021/06/21 07:19:51;;;;;;;11.02;2.22;;;21.90;99.90;;;23.23;77.31;99409.06;6158837;23;20364;-88
2021/06/21 07:22:17;;;;;;;9.27;2.33;;;21.80;99.90;;;23.29;77.48;99412.06;6132575;23;20052;-91
2021/06/21 07:24:43;;;;;;;7.25;2.65;;;21.80;99.90;;;23.02;77.16;99407.94;6134380;23;20020;-91
2021/06/21 07:27:09;;;;;;;10.68;2.53;;;21.70;99.90;;;22.96;78.12;99406.97;6135105;23;20052;-90
2021/06/21 07:29:35;;;;;;;9.45;1.90;;;21.70;99.90;;;23.23;77.81;99408.28;6133725;23;20435;-89
2021/06/21 07:32:03;;;;;;;6.35;2.10;;;21.70;99.90;;;23.23;78.18;99411.91;6159757;23;20024;-90
2021/06/21 07:34:32;;;;;;;7.85;2.17;;;21.70;99.90;;;23.53;76.59;99416.69;6159335;23;20006;-88
2021/06/21 07:36:58;;;;;;;12.35;2.30;;;21.90;99.90;;;23.23;76.70;99417.59;6142374;23;19989;-87
2021/06/21 07:39:24;;;;;;;11.95;2.85;;;21.90;99.90;;;23.24;76.35;99413.50;6153072;23;19994;-89
2021/06/21 07:41:51;;;;;;;6.68;2.35;;;21.80;99.90;;;23.23;77.52;99411.13;6137752;23;246500;-90
2021/06/21 07:44:18;;;;;;;8.68;2.40;;;21.80;99.90;;;23.80;76.18;99418.72;6169693;23;20017;-89
2021/06/21 07:46:48;;;;;;;6.53;2.47;;;22.30;99.90;;;24.87;70.22;99423.75;6171249;23;20498;-89
2021/06/21 07:49:25;;;;;;;7.45;1.92;;;23.00;99.90;;;24.90;69.36;99422.78;6195751;23;20001;-91
2021/06/21 07:51:51;;;;;;;7.18;1.83;;;23.40;99.90;;;25.03;68.44;99431.09;6169269;23;20019;-92
2021/06/21 07:54:19;;;;;;;7.97;2.35;;;23.60;99.90;;;24.91;68.43;99432.94;6176454;23;20013;-88
2021/06/21 07:56:45;;;;;;;5.38;1.90;;;23.50;99.90;;;24.74;68.85;99436.63;6161085;23;20044;-89
2021/06/21 07:59:11;;;;;;;6.57;1.85;;;23.30;99.90;;;24.35;69.72;99427.94;6161934;23;20450;-88
2021/06/21 08:01:38;;;;;;;4.47;1.70;;;23.00;99.90;;;24.51;70.93;99432.47;6188279;23;20063;-89
2021/06/21 08:04:04;;;;;;;4.88;1.83;;;22.90;99.90;;;24.31;71.81;99433.00;6162692;23;20017;-89
2021/06/21 08:06:30;;;;;;;7.50;1.92;;;22.90;99.90;;;23.96;71.95;99431.81;6162243;23;20009;-89
2021/06/21 08:08:56;;;;;;;6.45;1.63;;;22.90;99.90;;;24.35;72.25;99424.28;6161545;23;20029;-88
2021/06/21 08:11:22;;;;;;;4.05;1.70;;;23.00;99.90;;;24.73;69.15;99432.97;6162714;23;20040;-90
2021/06/21 08:13:48;;;;;;;7.93;2.00;;;23.20;99.90;;;24.27;70.45;99435.28;6162434;23;20005;-90
2021/06/21 08:16:14;;;;;;;6.78;1.63;;;23.10;99.90;;;23.97;72.01;99427.72;6188875;23;20012;-90
2021/06/21 08:18:40;;;;;;;9.20;1.48;;;22.80;99.90;;;23.68;73.18;99431.09;6162015;23;20001;-89
2021/06/21 08:21:06;;;;;;;5.53;1.55;;;22.60;99.90;;;23.67;73.53;99445.78;6162300;23;20052;-88
2021/06/21 08:23:34;;;;;;;4.93;1.35;;;22.30;99.90;;;23.33;74.98;99442.00;6161767;23;20017;-90
2021/06/21 08:26:02;;;;;;;5.00;1.23;;;22.10;99.90;;;23.00;76.13;99436.09;6162727;23;20005;-88
2021/06/21 08:28:28;;;;;;;4.55;1.50;;;21.80;99.90;;;22.83;76.83;99434.00;6188958;23;20009;-90
2021/06/21 08:30:54;;;;;;;5.57;1.40;;;21.60;99.90;;;22.90;77.33;99431.63;6163512;23;20013;-90
2021/06/21 08:33:21;;;;;;;2.83;1.33;;;21.60;99.90;;;23.13;77.09;99426.59;6189123;23;20300;-89
2021/06/21 08:35:47;;;;;;;3.70;1.30;;;21.70;99.90;;;23.57;76.56;99427.91;6163063;23;20009;-88
2021/06/21 08:38:13;;;;;;;5.43;1.38;;;21.90;99.90;;;23.89;74.26;99426.47;6162407;23;20024;-91
2021/06/21 08:40:39;;;;;;;5.22;1.52;;;22.20;99.90;;;24.43;72.21;99434.91;6163270;23;20013;-87
2021/06/21 08:43:05;;;;;;;3.58;1.45;;;22.60;99.90;;;24.81;70.47;99434.22;6162099;23;20415;-89
2021/06/21 08:45:34;;;;;;;3.63;1.17;;;23.10;99.90;;;25.22;68.62;99435.41;6162571;23;20036;-89
2021/06/21 08:48:05;;;;;;;5.65;1.33;;;23.40;99.90;;;25.34;67.87;99427.84;6162351;23;20060;-90
2021/06/21 08:50:31;;;;;;;3.80;1.20;;;23.50;99.90;;;25.12;67.99;99425.31;6162772;23;20497;-89
2021/06/21 08:52:59;;;;;;;3.08;1.23;;;23.50;99.90;;;24.63;69.56;99432.25;6167556;23;20008;-88
2021/06/21 08:55:25;;;;;;;6.15;1.70;;;23.30;99.90;;;24.54;69.67;99426.59;6218339;23;20074;-89
2021/06/21 08:57:51;;;;;;;5.10;1.27;;;23.10;99.90;;;24.43;70.55;99428.38;6192485;23;20008;-88
2021/06/21 09:00:20;;;;;;;4.38;1.30;;;23.10;99.90;;;24.50;69.82;99428.03;6218866;23;20346;-87
2021/06/21 09:02:50;;;;;;;6.28;1.70;;;23.10;99.90;;;24.63;69.29;99432.25;6194518;23;20009;-88
2021/06/21 09:05:18;;;;;;;5.47;1.58;;;23.20;99.90;;;25.02;68.73;99432.38;6211413;23;20008;-88
2021/06/21 09:07:47;;;;;;;5.13;1.20;;;23.30;99.90;;;25.63;68.01;99431.59;6229565;23;20115;-88
2021/06/21 09:10:27;;;;;;;4.45;1.20;;;23.70;99.90;;;25.61;65.96;99430.53;6231923;23;20024;-89
2021/06/21 09:13:07;;;;;;;6.95;1.48;;;23.70;99.90;;;24.98;68.25;99426.06;6232933;23;20058;-89
2021/06/21 09:15:44;;;;;;;6.43;1.70;;;23.40;99.90;;;24.29;71.55;99426.22;6232938;23;19997;-86
2021/06/21 09:18:35;;;;;;;4.22;1.70;;;22.90;99.90;;;24.22;72.15;99432.25;6236196;23;19992;-87
2021/06/21 09:21:30;;;;;;;4.50;1.55;;;22.70;99.90;;;24.71;71.87;99434.75;6239413;23;20005;-90
2021/06/21 09:24:01;;;;;;;4.60;1.65;;;22.90;99.90;;;26.23;67.62;99436.13;6220261;23;20043;-89
2021/06/21 09:26:33;;;;;;;5.90;1.40;;;24.00;99.90;;;27.29;63.45;99435.66;6195927;23;20019;-91
2021/06/21 09:29:04;;;;;;;3.10;1.40;;;25.00;99.90;;;27.16;61.20;99432.34;6221541;23;20008;-90
2021/06/21 09:31:50;;;;;;;3.78;1.40;;;25.10;99.90;;;26.86;63.49;99430.88;6196513;23;20024;-88
2021/06/21 09:34:22;;;;;;;5.88;1.60;;;24.80;99.90;;;26.15;64.43;99427.09;6221307;23;20008;-87
2021/06/21 09:36:48;;;;;;;6.00;1.60;;;24.40;99.90;;;24.98;67.71;99426.06;6219518;23;20004;-91
2021/06/21 09:39:32;;;;;;;5.97;1.58;;;23.70;99.90;;;24.48;70.41;99439.94;6221081;23;20042;-88
2021/06/21 09:42:15;;;;;;;3.53;1.60;;;23.20;99.90;;;23.76;71.97;99434.41;6220770;23;20011;-91
2021/06/21 09:45:02;;;;;;;3.67;1.98;;;22.60;99.90;;;23.60;72.94;99442.00;6194900;23;20009;-90
2021/06/21 09:47:38;;;;;;;3.72;1.65;;;22.40;99.90;;;23.87;72.66;99446.91;6195608;23;20141;-86
2021/06/21 09:50:21;;;;;;;;;;;22.40;99.90;;;24.07;72.04;99446.38;6194227;23;20020;-90
2021/06/21 09:53:03;;;;;;;5.63;2.42;;;22.60;99.90;;;24.05;72.12;99446.06;6219155;23;19942;-87
2021/06/21 09:55:39;;;;;;;16.08;3.95;;;22.60;99.90;;;23.87;74.79;99448.94;6220155;23;20009;-87
2021/06/21 09:58:20;;;;;;;10.43;5.90;;;22.60;99.90;;;23.77;77.78;99473.03;6197318;23;20067;-90
2021/06/21 10:01:12;;;;;;;10.80;7.13;;;22.40;99.90;;;23.51;80.89;99476.22;6197780;23;20385;-89
2021/06/21 10:03:45;;;;;;;8.75;6.75;;;22.10;99.90;;;23.34;82.03;99477.75;6198266;23;20044;-87
2021/06/21 10:06:13;;;;;;;13.18;10.18;;;21.90;99.90;;;23.28;82.25;99479.63;6222670;23;20001;-88
2021/06/21 10:08:54;;;;;;;13.25;11.98;;;21.70;99.90;;;23.28;82.04;99487.41;6223712;23;20000;-90
2021/06/21 10:11:46;;;;;;;22.20;13.40;;;21.80;99.90;;;23.63;79.25;99483.81;6196438;23;20009;-88
2021/06/21 10:14:22;;;;;;;16.02;14.25;;;21.90;99.90;;;23.47;79.03;99500.44;6195105;23;20501;-88
2021/06/21 10:16:51;;;;;;;22.23;17.27;;;21.90;99.90;;;23.39;81.64;99508.47;6196126;23;20012;-88
2021/06/21 10:19:19;;;;;;;28.42;18.55;;;21.90;99.90;;;23.70;77.89;99516.09;6195452;23;20025;-91
2021/06/21 10:21:52;;;;;;;22.65;19.13;;;22.10;99.90;;;23.87;76.86;99523.09;6194843;23;20013;-90
2021/06/21 10:24:19;;;;;;;23.13;19.40;;;22.20;99.90;;;24.19;75.00;99527.34;6194558;23;20008;-89
2021/06/21 10:26:50;;;;;;;27.33;22.65;;;22.30;99.90;;;24.17;75.33;99532.75;6193629;23;20012;-90
2021/06/21 10:29:19;;;;;;;29.52;23.70;;;22.60;99.90;;;24.32;72.89;99539.38;6219111;23;20081;-89
2021/06/21 10:31:46;;;;;;;30.73;23.98;;;22.70;99.90;;;23.79;72.10;99539.72;6196025;23;20383;-86
2021/06/21 10:34:17;;;;;;;28.33;25.33;;;22.40;99.90;;;23.55;73.11;99545.25;6228869;23;20302;-88
2021/06/21 10:36:51;;;;;;;29.35;24.50;;;22.10;99.90;;;23.44;72.30;99553.44;6215672;23;20028;-88
2021/06/21 10:39:35;;;;;;;35.53;23.70;;;22.00;99.90;;;23.45;73.01;99557.91;6242159;23;19996;-88
2021/06/21 10:42:07;;;;;;;31.08;24.20;;;21.90;99.90;;;23.64;71.05;99570.09;6196657;23;20027;-91
2021/06/21 10:44:58;;;;;;;29.85;22.30;;;22.00;99.90;;;23.26;69.97;99573.34;6219358;23;20004;-90
2021/06/21 10:47:43;;;;;;;26.83;21.50;;;21.90;99.90;;;23.68;69.23;99565.06;6190903;23;20023;-90
2021/06/21 10:50:18;;;;;;;27.80;20.92;;;22.00;99.90;;;23.91;67.10;99580.75;6189303;23;20072;-88
2021/06/21 10:52:53;;;;;;;29.77;20.88;;;22.20;99.90;;;23.82;67.84;99589.31;6190632;23;20040;-89
2021/06/21 10:55:35;;;;;;;30.58;22.48;;;22.10;99.90;;;22.93;70.52;99598.69;6192262;23;20004;-89
2021/06/21 10:58:19;;;;;;;27.75;21.35;;;21.70;99.90;;;22.73;70.61;99595.44;6194481;23;20008;-89
2021/06/21 11:00:51;;;;;;;27.70;20.65;;;21.40;99.90;;;22.77;70.16;99609.50;6193012;23;20127;-89
2021/06/21 11:03:26;;;;;;;32.67;23.40;;;21.20;99.90;;;22.47;71.50;99599.66;6193135;23;20020;-91
2021/06/21 11:05:56;;;;;;;34.28;22.10;;;21.10;99.90;;;22.68;71.18;99615.16;6218815;23;20334;-90
2021/06/21 11:08:39;;;;;;;31.50;22.42;;;21.10;99.90;;;22.63;71.22;99613.69;6169714;23;20027;-92
2021/06/21 11:11:46;;;;;;;29.20;21.60;;;21.10;99.90;;;22.44;71.65;99626.19;6220036;23;20066;-89
2021/06/21 11:14:25;;;;;;;30.05;22.52;;;21.10;99.90;;;22.43;72.02;99627.44;6216719;23;20449;-89
2021/06/21 11:17:19;;;;;;;33.65;24.25;;;20.90;99.90;;;21.82;73.00;99630.84;6221498;23;20001;-91
2021/06/21 11:19:45;;;;;;;34.50;25.25;;;20.70;99.90;;;21.83;73.74;99636.06;6182997;23;20070;-90
2021/06/21 12:04:00;;;;;;;10.50;8.50;;;18.40;99.90;;;19.18;89.25;99739.22;5928607;24;20036;-89
2021/06/21 12:06:29;;;;;;;11.38;7.63;;;18.00;99.90;;;18.83;88.25;99747.25;6046226;23;20419;-89
2021/06/21 12:08:57;;;;;;;10.77;6.80;;;17.70;99.90;;;18.81;90.86;99746.91;6188522;23;20016;-88
2021/06/21 12:11:32;;;;;;;6.85;5.20;;;17.60;99.90;;;18.94;90.65;99753.47;6188211;23;20005;-88
2021/06/21 12:14:04;;;;;;;6.13;4.65;;;17.60;99.90;;;19.01;91.22;99766.69;6185399;23;20009;-87
2021/06/21 12:16:36;;;;;;;5.82;4.57;;;17.60;99.90;;;18.92;89.25;99766.47;6210573;23;20146;-89
2021/06/21 12:19:03;;;;;;;7.00;5.47;;;17.60;99.90;;;18.64;90.05;99779.16;6210606;23;20005;-88
2021/06/21 12:21:39;;;;;;;7.82;5.40;;;17.50;99.90;;;18.63;92.03;99779.59;6212445;23;20016;-89
2021/06/21 12:24:31;;;;;;;6.82;5.70;;;17.40;99.90;;;18.56;91.12;99780.53;6189120;23;20011;-90
2021/06/21 12:27:06;;;;;;;5.68;4.63;;;17.30;99.90;;;18.49;90.41;99780.66;6213978;23;20072;-90
2021/06/21 12:29:39;;;;;;;4.73;4.23;;;17.30;99.90;;;18.48;90.76;99790.34;6213268;23;20036;-89
2021/06/21 12:32:15;;;;;;;4.78;4.13;;;17.30;99.90;;;18.43;90.20;99791.63;6212888;23;20247;-88
2021/06/21 12:34:55;;;;;;;4.65;3.42;;;17.20;99.90;;;18.42;90.41;99800.56;6212500;23;20005;-89
2021/06/21 12:38:19;;;;;;;5.50;3.60;;;17.10;99.90;;;18.43;92.67;99811.44;6212725;23;20009;-86
2021/06/21 12:40:46;;;;;;;3.45;3.00;;;17.10;99.90;;;18.49;91.57;99819.44;6211572;23;20080;-88
2021/06/21 12:43:13;;;;;;;4.40;3.72;;;17.10;99.90;;;18.51;91.69;99829.09;6211566;23;20001;-89
2021/06/21 12:45:44;;;;;;;3.30;3.00;;;17.20;99.90;;;18.46;91.57;99829.59;6186088;23;20005;-87
2021/06/21 12:48:43;;;;;;;3.17;2.30;;;17.10;99.90;;;18.02;91.06;99847.66;6212566;23;20088;-89
2021/06/21 12:51:16;;;;;;;3.10;2.80;;;16.90;99.90;;;18.06;92.43;99861.75;6212679;23;20020;-90
2021/06/21 12:54:06;;;;;;;2.90;2.33;;;16.90;99.90;;;17.92;92.19;99862.75;6213042;23;20009;-92
2021/06/21 12:56:46;;;;;;;3.17;2.88;;;16.80;99.90;;;17.94;92.09;99870.81;6188775;23;20439;-90
2021/06/21 12:59:30;;;;;;;5.53;4.88;;;16.70;99.90;;;17.92;93.14;99876.88;6191882;23;20009;-89
2021/06/21 13:01:59;;;;;;;6.18;5.43;;;16.60;99.90;;;17.87;90.85;99875.34;6223003;23;20037;-89
2021/06/21 13:04:26;;;;;;;6.28;5.22;;;16.60;99.90;;;18.10;92.00;99880.25;6226890;23;20012;-89
2021/06/21 13:07:10;;;;;;;7.40;4.65;;;16.70;99.90;;;18.07;89.60;99886.75;6200337;23;20008;-87
2021/06/21 13:09:51;;;;;;;5.03;4.53;;;16.80;99.90;;;17.89;90.86;99881.38;6218603;23;20066;-87
2021/06/21 13:12:33;;;;;;;4.70;4.30;;;16.70;99.90;;;17.79;91.62;99887.16;6219417;23;20000;-88
2021/06/21 13:15:18;;;;;;;4.25;3.92;;;16.60;99.90;;;18.03;92.15;99905.78;6219032;23;20005;-88
2021/06/21 13:17:54;;;;;;;4.80;4.40;;;16.60;99.90;;;17.95;91.57;99903.50;6221462;23;20032;-88
2021/06/21 13:21:01;;;;;;;4.70;4.30;;;16.70;99.90;;;18.06;92.86;99904.13;6193992;23;20036;-87
2021/06/21 13:23:50;;;;;;;2.40;2.20;;;16.70;99.90;;;18.01;90.21;99925.22;6185774;23;20013;-85
2021/06/21 13:26:17;;;;;;;4.80;2.35;;;16.60;99.90;;;18.12;88.89;99925.84;6218654;23;20019;-88
2021/06/21 13:28:43;;;;;;;1.88;1.70;;;16.70;99.90;;;18.29;88.65;99933.25;6218481;23;20035;-86
2021/06/21 13:31:24;;;;;;;1.45;1.35;;;16.80;99.90;;;18.28;86.72;99936.47;6219728;23;20342;-87
2021/06/21 13:33:51;;;;;;;1.40;1.30;;;16.90;99.90;;;18.32;87.66;99940.88;6218162;23;20510;-89
2021/06/21 13:36:17;;;;;;;1.65;1.30;;;16.90;99.90;;;18.18;86.68;99938.25;6219272;23;20050;-89
2021/06/21 13:38:45;;;;;;;1.60;1.35;;;16.80;99.90;;;18.13;87.59;99947.22;6192774;23;20061;-88
2021/06/21 13:41:38;;;;;;;2.42;1.60;;;16.80;99.90;;;18.07;86.34;99956.59;6194752;23;20024;-90
2021/06/21 13:44:11;;;;;;;1.60;1.50;;;16.80;99.90;;;18.04;88.96;99957.44;6191775;23;20009;-85
2021/06/21 13:46:39;;;;;;;2.28;1.70;;;16.70;99.90;;;18.10;88.34;99962.22;6169906;23;20031;-89
2021/06/21 13:49:09;;;;;;;2.67;1.95;;;16.70;99.90;;;18.06;89.72;99961.44;6193455;23;20351;-89
2021/06/21 13:51:36;;;;;;;2.55;2.13;;;16.80;99.90;;;18.07;89.80;99963.06;6193828;23;20016;-86
2021/06/21 13:56:32;;;;;;;1.58;1.48;;;16.60;99.90;;;17.93;88.40;99968.91;6195552;23;20027;-89
2021/06/21 13:59:13;;;;;;;3.78;2.38;;;16.60;99.90;;;18.02;88.01;99977.66;6152773;23;20017;-89
2021/06/21 14:01:52;;;;;;;1.80;1.70;;;16.60;99.90;;;18.13;88.92;99983.16;6177705;23;20044;-90
2021/06/21 14:04:21;;;;;;;2.50;2.25;;;16.60;99.90;;;18.02;87.10;99979.66;6180721;23;20013;-88
2021/06/21 14:06:48;;;;;;;1.80;1.70;;;16.60;99.90;;;18.10;88.12;99987.63;6168054;23;20013;-90
2021/06/21 14:09:17;;;;;;;1.83;1.73;;;16.70;99.90;;;18.12;86.86;99987.19;6139119;23;20020;-90
2021/06/21 14:11:44;;;;;;;4.07;1.77;;;16.80;99.90;;;18.18;86.42;99989.13;6163961;23;20128;-91
2021/06/21 14:14:10;;;;;;;3.55;1.80;;;16.70;99.90;;;18.21;84.40;99990.28;6164564;23;20104;-88
2021/06/21 14:16:37;;;;;;;1.67;1.38;;;16.80;99.90;;;18.24;84.88;100004.38;6143435;23;20395;-89
2021/06/21 14:19:04;;;;;;;1.65;1.55;;;16.80;99.90;;;18.24;85.19;100009.22;6167649;23;20116;-89
2021/06/21 14:21:34;;;;;;;1.98;1.75;;;16.80;99.90;;;18.21;84.43;100005.22;6168316;23;20013;-91
2021/06/21 14:24:00;;;;;;;1.55;1.45;;;16.80;99.90;;;18.21;85.22;100013.72;6122551;23;20074;-90
2021/06/21 14:26:27;;;;;;;1.65;1.55;;;16.80;99.90;;;18.39;84.44;100021.94;6168997;23;20024;-91
2021/06/21 14:28:53;;;;;;;1.50;1.40;;;17.00;99.90;;;18.61;83.97;100019.63;6163418;23;20486;-89
2021/06/21 14:31:21;;;;;;;1.75;1.65;;;17.20;99.90;;;19.12;81.76;100018.38;6163922;23;20139;-89
2021/06/21 14:33:50;;;;;;;1.42;1.33;;;17.50;99.90;;;19.47;80.71;100031.91;6162878;23;20008;-90
2021/06/21 14:36:16;;;;;;;1.10;1.10;;;17.80;99.90;;;19.56;79.94;100034.16;6162694;23;20020;-90
2021/06/21 14:38:42;;;;;;;2.33;1.38;;;17.90;99.90;;;19.31;79.45;100031.78;6165271;23;20476;-90
2021/06/21 14:41:12;;;;;;;1.33;1.23;;;17.80;99.90;;;19.36;80.31;100039.78;6170422;23;20009;-92
2021/06/21 14:43:39;;;;;;;1.75;1.60;;;17.80;99.90;;;19.25;79.11;100020.16;6172453;23;20009;-90
2021/06/21 14:46:07;;;;;;;2.90;1.75;;;17.90;99.90;;;19.39;76.39;100024.75;6197586;23;20005;-91
2021/06/21 14:48:35;;;;;;;2.13;2.00;;;17.90;99.90;;;19.26;77.30;100033.09;6175413;23;20037;-91
2021/06/21 14:51:05;;;;;;;1.55;1.40;;;17.80;99.90;;;19.22;77.87;100032.34;6174201;23;20012;-90
2021/06/21 14:53:33;;;;;;;3.08;1.60;;;17.70;99.90;;;19.10;78.70;100040.66;6176946;23;20007;-89
2021/06/21 14:56:00;;;;;;;2.13;1.45;;;17.60;99.90;;;18.99;79.29;100034.34;6217656;23;20016;-91
2021/06/21 14:58:26;;;;;;;2.42;2.00;;;17.50;99.90;;;18.75;79.92;100047.69;6199730;23;20066;-91
2021/06/21 15:00:52;;;;;;;3.97;1.95;;;17.40;99.90;;;18.71;81.33;100055.44;6224418;23;19997;-91
2021/06/21 15:03:18;;;;;;;2.85;2.17;;;17.30;99.90;;;18.59;80.93;100047.53;6225125;23;20067;-89
2021/06/21 15:05:44;;;;;;;3.20;3.00;;;17.10;99.90;;;18.38;82.89;100052.25;6194322;23;20008;-90
2021/06/21 15:08:16;;;;;;;4.32;3.05;;;17.00;99.90;;;18.36;82.55;100068.03;6191196;23;20390;-89
2021/06/21 15:10:43;;;;;;;4.45;3.47;;;16.90;99.90;;;18.28;84.15;100072.16;6220105;23;20036;-88
2021/06/21 15:13:12;;;;;;;3.92;3.63;;;17.00;99.90;;;18.25;83.69;100071.00;6218182;23;20012;-90
2021/06/21 15:15:39;;;;;;;3.92;3.63;;;16.90;99.90;;;18.33;84.11;100080.97;6194191;23;20024;-89
2021/06/21 15:18:06;;;;;;;4.07;3.50;;;16.90;99.90;;;18.34;82.91;100084.59;6198608;23;20009;-89
2021/06/21 15:20:35;;;;;;;3.40;3.20;;;16.90;99.90;;;18.36;82.84;100088.63;6201937;23;20111;-89
2021/06/21 15:23:04;;;;;;;3.33;3.03;;;16.90;99.90;;;18.35;82.16;100086.22;6226119;23;20009;-92